Azalea, OR

7:55 AM PDT on September 30, 2014 (GMT -0700)
wolf creek | Change Station
CLOSE
Current Station
Personal Weather Station
Location: Wolf Creek, OR
Elevation: 1503 ft
Nearby Weather Stations

Elev 1503 ft 42.71 °N, 123.37 °W | Updated 19 seconds ago

Fog
Fog
49.5 °F
Feels Like 50 °F
N
0.0
Wind Variable Wind from NW
Gusts 0.0 mph

Today
High -- | Low -- °F
--% Chance of Precip.
Yesterday
High -- | Low -- °F
Precip. -- in
7:09 AM 6:55 PM
Waxing Crescent, 37% visible
Pressure 30.16 in
Visibility 0.5 miles
Clouds Overcast 100 ft
Windchill 50 °F
Dew Point 48 °F
Humidity 96%
Rainfall 0.00 in
Snow Depth 0 in , 0 in , 0 in
UV 0 out of 12
Pollen 3.40 out of 12
Air Quality Not available.
Flu Activity Not available.
SPECI KRBG 301443Z AUTO 00000KT 1/2SM FG OVC001 12/11 A3016 RMK AO2 T01170106

More Conditions Fewer Conditions

Pressure 30.16 in
Visibility 0.5 miles
Clouds Overcast 100 ft
Windchill 50 °F
Dew Point 48 °F
Humidity 96%
Rainfall 0.00 in
Snow Depth 0 in , 0 in , 0 in
UV 0 out of 12
Pollen 3.40 out of 12
Air Quality Not available.
Flu Activity Not available.
SPECI KRBG 301443Z AUTO 00000KT 1/2SM FG OVC001 12/11 A3016 RMK AO2 T01170106

More Conditions Fewer Conditions

10-Day Weather Forecast

Almanac

Astronomy

Sep. 30, 2014 Rise Set
Actual Time 7:09 AM PDT 6:55 PM PDT
Civil Twilight 6:40 AM PDT 7:23 PM PDT
Nautical Twilight 6:08 AM PDT 7:56 PM PDT
Astronomical Twilight 5:34 AM PDT 8:29 PM PDT
Moon 1:28 PM PDT 11:25 PM PDT
Length of Visible Light 12h 42m
Length of Day
11h 46m
Tomorrow will be 2m 53s shorter.
Waxing Crescent, 37% of the Moon is Illuminated
Today
Waxing Crescent
Oct 1
First Quarter
Oct 8
Full
Oct 15
Last Quarter
Oct 23
New

Today's Extremes

State Highs State Lows

Community

WunderPhotos

Upload Photos

1,757,641 photos uploaded!

WunderBlogs® & News

By Dr. Jeff Masters
Director of Meteorology, Weather Underground
By Kari Strenfel
Meteorologist, Weather Underground
By Christopher C. Burt
Weather Historian, Weather Underground
September 30, 2014
September 30, 2014
September 30, 2014

Nearby

Snow Depth

Station Depth Elevation
Santiam Junction 0 in 3750 ft
Chemult Alternate 0 in 4760 ft
Blue Mountain Spring 0 in 5900 ft
Cold Springs Camp 0 in 6100 ft
Snow Mountain 0 in 6220 ft

Earthquake Activity

City Distance Mag. Time & Date
No recent earthquake activity has been reported nearby.
Minimum magnitude displayed is 2.5.

Coastal Water Temperatures

Place Temperature
No Stations Reporting

Nearby Weather Stations